createdAt,value
2022-08-25T00:01:27.546Z,23.87
2022-08-25T00:04:03.591Z,23.92
2022-08-25T00:06:37.450Z,23.95
2022-08-25T00:09:14.555Z,23.95
2022-08-25T00:11:49.403Z,23.94
2022-08-25T00:14:26.569Z,23.92
2022-08-25T00:17:00.942Z,23.85
2022-08-25T00:19:37.796Z,23.82
2022-08-25T00:22:11.416Z,23.81
2022-08-25T00:24:45.274Z,23.81
2022-08-25T00:27:19.069Z,23.83
2022-08-25T00:29:52.452Z,23.83
2022-08-25T00:32:26.143Z,23.81
2022-08-25T00:35:00.983Z,23.79
2022-08-25T00:37:36.397Z,23.78
2022-08-25T00:40:13.898Z,23.79
2022-08-25T00:42:46.908Z,23.79
2022-08-25T00:45:20.393Z,23.80
2022-08-25T00:47:53.915Z,23.74
2022-08-25T00:50:30.256Z,23.71
2022-08-25T00:53:06.537Z,23.69
2022-08-25T00:55:42.332Z,23.66
2022-08-25T00:58:18.874Z,23.63
2022-08-25T01:00:55.723Z,23.59
2022-08-25T01:03:35.667Z,23.56
2022-08-25T01:06:12.156Z,23.54
2022-08-25T01:08:46.301Z,23.54
2022-08-25T01:11:20.051Z,23.53
2022-08-25T01:13:56.330Z,23.53
2022-08-25T01:16:30.039Z,23.46
2022-08-25T01:19:04.435Z,23.33
2022-08-25T01:21:44.070Z,23.19
2022-08-25T01:24:23.975Z,23.10
2022-08-25T01:26:57.349Z,22.99
2022-08-25T01:29:31.673Z,23.02
2022-08-25T01:32:09.022Z,23.00
2022-08-25T01:34:44.536Z,23.03
2022-08-25T01:37:19.397Z,23.01
2022-08-25T01:39:53.024Z,22.94
2022-08-25T01:42:37.105Z,22.87
2022-08-25T01:45:11.869Z,22.79
2022-08-25T01:47:45.388Z,22.71
2022-08-25T01:50:19.418Z,22.64
2022-08-25T01:52:57.680Z,22.60
2022-08-25T01:55:31.367Z,22.55
2022-08-25T01:58:05.623Z,22.51
2022-08-25T02:00:39.176Z,22.50
2022-08-25T02:03:18.709Z,22.56
2022-08-25T02:05:48.691Z,22.68
2022-08-25T02:08:23.480Z,22.69
2022-08-25T02:10:57.405Z,22.65
2022-08-25T02:13:31.682Z,22.59
2022-08-25T02:16:06.940Z,22.56
2022-08-25T02:18:40.608Z,22.47
2022-08-25T02:21:15.104Z,22.40
2022-08-25T02:23:48.535Z,22.33
2022-08-25T02:26:22.592Z,22.24
2022-08-25T02:28:56.203Z,22.18
2022-08-25T02:31:30.404Z,22.08
2022-08-25T02:34:04.112Z,22.01
2022-08-25T02:36:38.013Z,21.94
2022-08-25T02:39:12.670Z,21.86
2022-08-25T02:41:46.259Z,21.85
2022-08-25T02:44:19.720Z,21.84
2022-08-25T02:46:52.884Z,21.82
2022-08-25T02:49:26.634Z,21.81
2022-08-25T02:52:00.643Z,21.79
2022-08-25T02:54:34.742Z,21.79
2022-08-25T02:57:08.545Z,21.79
2022-08-25T02:59:42.106Z,21.79
2022-08-25T03:02:16.779Z,21.82
2022-08-25T03:04:50.925Z,21.84
2022-08-25T03:07:24.763Z,21.88
2022-08-25T03:09:58.731Z,21.92
2022-08-25T03:12:32.381Z,21.96
2022-08-25T03:15:12.310Z,22.00
2022-08-25T03:17:45.531Z,22.06
2022-08-25T03:20:17.540Z,22.15
2022-08-25T03:22:51.943Z,22.26
2022-08-25T03:25:43.020Z,22.28
2022-08-25T03:28:17.336Z,22.30
2022-08-25T03:30:56.210Z,22.34
2022-08-25T03:33:32.128Z,22.40
2022-08-25T03:36:08.953Z,22.44
2022-08-25T03:38:44.870Z,22.52
2022-08-25T03:41:21.542Z,22.57
2022-08-25T03:43:55.785Z,22.58
2022-08-25T03:46:31.626Z,22.61
2022-08-25T03:49:06.728Z,22.69
2022-08-25T03:51:43.251Z,22.71
2022-08-25T03:54:18.112Z,22.73
2022-08-25T03:56:51.813Z,22.79
2022-08-25T03:59:26.861Z,22.83
2022-08-25T04:02:00.710Z,22.88
2022-08-25T04:04:35.212Z,22.89
2022-08-25T04:07:09.354Z,22.92
2022-08-25T04:09:43.173Z,23.00
2022-08-25T04:12:16.799Z,23.15
2022-08-25T04:14:52.395Z,23.12
2022-08-25T04:17:26.557Z,23.12
2022-08-25T04:20:00.313Z,23.08
2022-08-25T04:22:34.546Z,23.09
2022-08-25T04:25:12.341Z,23.10
2022-08-25T04:27:45.877Z,23.15
2022-08-25T04:30:20.184Z,23.18
2022-08-25T04:32:53.810Z,23.21
2022-08-25T04:35:27.513Z,23.24
2022-08-25T04:38:01.191Z,23.29
2022-08-25T04:40:34.833Z,23.34
2022-08-25T04:43:08.394Z,23.38
2022-08-25T04:45:42.493Z,23.43
2022-08-25T04:48:16.073Z,23.48
2022-08-25T04:50:50.148Z,23.54
2022-08-25T04:53:24.123Z,23.58
2022-08-25T04:56:01.827Z,23.66
2022-08-25T04:58:32.699Z,23.72
2022-08-25T05:01:07.536Z,23.79
2022-08-25T05:03:41.485Z,23.87
2022-08-25T05:06:16.175Z,23.95
2022-08-25T05:08:50.032Z,24.01
2022-08-25T05:11:24.109Z,24.08
2022-08-25T05:14:01.471Z,24.13
2022-08-25T05:16:35.201Z,24.21
2022-08-25T05:19:09.141Z,24.32
2022-08-25T05:21:43.109Z,24.45
2022-08-25T05:24:16.837Z,24.54
2022-08-25T05:26:50.784Z,24.59
2022-08-25T05:29:24.660Z,24.68
2022-08-25T05:32:00.576Z,24.76
2022-08-25T05:34:34.166Z,24.79
2022-08-25T05:37:12.256Z,24.85
2022-08-25T05:39:46.093Z,24.90
2022-08-25T05:45:01.584Z,25.13
2022-08-25T05:47:35.979Z,25.07
2022-08-25T05:50:11.890Z,25.16
2022-08-25T05:52:45.903Z,25.27
2022-08-25T05:55:19.632Z,25.36
2022-08-25T05:57:53.389Z,25.49
2022-08-25T06:00:29.217Z,25.63
2022-08-25T06:03:02.554Z,25.79
2022-08-25T06:05:36.241Z,25.93
2022-08-25T06:08:10.149Z,26.05
2022-08-25T06:10:43.683Z,26.17
2022-08-25T06:13:17.025Z,26.30
2022-08-25T06:15:51.592Z,26.43
2022-08-25T06:18:25.666Z,26.55
2022-08-25T06:20:59.584Z,26.69
2022-08-25T06:23:33.162Z,26.78
2022-08-25T06:26:06.926Z,26.91
2022-08-25T06:28:40.508Z,27.00
2022-08-25T06:31:14.241Z,27.11
2022-08-25T06:33:51.738Z,27.19
2022-08-25T06:36:23.934Z,27.40
2022-08-25T06:38:57.331Z,28.08
2022-08-25T06:41:37.083Z,28.95
2022-08-25T06:44:08.302Z,30.41
2022-08-25T06:46:45.234Z,32.14
2022-08-25T06:49:19.166Z,33.65
2022-08-25T06:51:53.899Z,34.68
2022-08-25T06:54:30.546Z,35.54
2022-08-25T06:57:07.632Z,35.86
2022-08-25T06:59:41.777Z,36.37
2022-08-25T07:02:15.727Z,36.72
2022-08-25T07:04:55.118Z,37.19
2022-08-25T07:07:43.585Z,37.84
2022-08-25T07:10:15.591Z,38.59
2022-08-25T07:12:53.853Z,38.80
2022-08-25T07:15:32.795Z,39.35
2022-08-25T07:18:13.499Z,40.21
2022-08-25T07:20:53.449Z,40.67
2022-08-25T07:23:30.123Z,40.78
2022-08-25T07:26:36.269Z,40.89
2022-08-25T07:28:54.483Z,41.32
2022-08-25T07:31:33.017Z,41.05
2022-08-25T07:34:28.432Z,41.22
2022-08-25T07:37:07.602Z,41.56
2022-08-25T07:39:54.230Z,42.60
2022-08-25T07:42:36.307Z,42.70
2022-08-25T07:45:20.709Z,42.92
2022-08-25T07:48:35.069Z,43.07
2022-08-25T07:51:12.138Z,42.53
2022-08-25T07:53:46.411Z,42.97
2022-08-25T07:56:20.304Z,43.53
2022-08-25T07:58:54.248Z,43.74
2022-08-25T08:01:32.504Z,44.03
2022-08-25T08:04:11.370Z,44.45
2022-08-25T08:06:47.970Z,44.88
2022-08-25T08:09:25.443Z,45.10
2022-08-25T08:12:01.325Z,45.10
2022-08-25T08:14:39.640Z,45.61
2022-08-25T08:17:19.416Z,46.08
2022-08-25T08:19:57.035Z,45.76
2022-08-25T08:22:35.360Z,45.37
2022-08-25T08:25:18.621Z,45.10
2022-08-25T08:27:54.924Z,44.95
2022-08-25T08:30:32.820Z,44.75
2022-08-25T08:33:12.048Z,45.00
2022-08-25T08:35:53.784Z,45.84
2022-08-25T08:38:33.248Z,45.86
2022-08-25T08:41:40.137Z,46.53
2022-08-25T08:44:16.171Z,46.64
2022-08-25T08:46:56.979Z,46.25
2022-08-25T08:49:35.135Z,46.59
2022-08-25T08:52:13.423Z,46.88
2022-08-25T08:54:57.376Z,46.49
2022-08-25T08:57:35.779Z,46.81
2022-08-25T09:00:12.564Z,46.19
2022-08-25T09:02:52.138Z,46.05
2022-08-25T09:05:28.988Z,46.26
2022-08-25T09:10:54.787Z,47.33
2022-08-25T09:13:34.608Z,46.47
2022-08-25T09:16:34.177Z,46.31
2022-08-25T09:19:21.430Z,45.86
2022-08-25T09:21:51.527Z,46.67
2022-08-25T09:24:47.194Z,47.44
2022-08-25T09:27:26.787Z,46.56
2022-08-25T09:30:10.197Z,45.87
2022-08-25T09:32:52.332Z,45.84
2022-08-25T09:35:31.282Z,46.22
2022-08-25T09:38:22.197Z,46.51
2022-08-25T09:41:00.774Z,46.32
2022-08-25T09:43:42.325Z,46.71
2022-08-25T09:46:20.801Z,47.40
2022-08-25T09:49:00.809Z,46.88
2022-08-25T09:54:34.051Z,45.99
2022-08-25T09:57:08.754Z,45.68
2022-08-25T09:59:53.760Z,45.45
2022-08-25T10:02:28.548Z,44.29
2022-08-25T10:05:04.910Z,43.84
2022-08-25T10:07:39.854Z,42.57
2022-08-25T10:10:25.871Z,43.00
2022-08-25T10:13:02.254Z,43.77
2022-08-25T10:15:39.851Z,44.05
2022-08-25T10:18:31.148Z,44.38
2022-08-25T10:21:12.367Z,45.79
2022-08-25T10:26:38.709Z,48.27
2022-08-25T10:29:30.698Z,47.33
2022-08-25T10:32:12.245Z,46.71
2022-08-25T10:34:51.341Z,45.96
2022-08-25T10:37:34.666Z,45.57
2022-08-25T10:40:16.946Z,46.40
2022-08-25T10:43:05.579Z,45.22
2022-08-25T10:45:48.665Z,42.40
2022-08-25T10:48:49.516Z,40.01
2022-08-25T10:54:40.880Z,43.80
2022-08-25T10:57:21.809Z,45.13
2022-08-25T11:00:02.242Z,46.89
2022-08-25T11:02:55.968Z,47.69
2022-08-25T11:05:32.864Z,47.88
2022-08-25T11:08:14.597Z,46.24
2022-08-25T11:10:54.852Z,45.33
2022-08-25T11:13:31.810Z,44.89
2022-08-25T11:16:19.635Z,44.96
2022-08-25T11:18:52.990Z,44.76
2022-08-25T11:21:30.536Z,43.00
2022-08-25T11:24:09.043Z,43.10
2022-08-25T11:26:45.306Z,44.12
2022-08-25T11:29:22.182Z,43.70
2022-08-25T11:31:56.684Z,43.80
2022-08-25T11:34:32.670Z,43.71
2022-08-25T11:37:11.298Z,44.54
2022-08-25T11:40:15.805Z,45.43
2022-08-25T11:43:00.281Z,45.86
2022-08-25T11:45:52.635Z,47.21
2022-08-25T11:48:32.109Z,46.78
2022-08-25T11:51:10.910Z,46.90
2022-08-25T11:53:47.887Z,46.41
2022-08-25T11:56:37.413Z,45.11
2022-08-25T11:59:14.272Z,44.29
2022-08-25T12:02:09.258Z,44.99
2022-08-25T12:04:45.762Z,45.35
2022-08-25T12:07:28.099Z,44.98
2022-08-25T12:10:26.060Z,45.76
2022-08-25T12:13:31.911Z,46.14
2022-08-25T12:16:07.348Z,46.14
2022-08-25T12:18:50.455Z,46.23
2022-08-25T12:21:35.890Z,46.90
2022-08-25T12:24:17.707Z,47.15
2022-08-25T12:27:00.885Z,46.49
2022-08-25T12:29:40.282Z,45.78
2022-08-25T12:32:37.518Z,44.61
2022-08-25T12:35:33.422Z,42.73
2022-08-25T12:38:10.607Z,40.06
2022-08-25T12:41:03.193Z,38.25
2022-08-25T12:43:42.690Z,38.64
2022-08-25T12:46:41.588Z,40.09
2022-08-25T12:49:32.687Z,41.15
2022-08-25T12:52:19.157Z,42.17
2022-08-25T12:54:58.432Z,42.40
2022-08-25T12:57:45.143Z,43.33
2022-08-25T13:00:22.774Z,43.91
2022-08-25T13:03:24.917Z,44.19
2022-08-25T13:06:21.825Z,44.14
2022-08-25T13:12:09.893Z,44.72
2022-08-25T13:14:46.139Z,44.26
2022-08-25T13:17:27.716Z,44.12
2022-08-25T13:23:04.077Z,45.34
2022-08-25T13:25:40.677Z,45.51
2022-08-25T13:28:18.580Z,45.27
2022-08-25T13:31:03.018Z,44.08
2022-08-25T13:33:38.587Z,43.57
2022-08-25T13:36:33.384Z,43.52
2022-08-25T13:39:16.378Z,43.13
2022-08-25T13:41:55.416Z,43.34
2022-08-25T13:44:31.075Z,43.22
2022-08-25T13:47:13.244Z,43.10
2022-08-25T13:49:48.445Z,42.87
2022-08-25T13:52:26.201Z,43.13
2022-08-25T13:55:04.759Z,43.56
2022-08-25T13:57:38.966Z,43.80
2022-08-25T14:00:14.625Z,43.49
2022-08-25T14:02:49.899Z,42.42
2022-08-25T14:05:39.856Z,41.27
2022-08-25T14:08:32.853Z,39.32
2022-08-25T14:11:14.663Z,38.11
2022-08-25T14:13:46.358Z,37.17
2022-08-25T14:16:22.960Z,36.63
2022-08-25T14:19:00.941Z,36.07
2022-08-25T14:21:40.903Z,36.40
2022-08-25T14:24:18.214Z,36.66
2022-08-25T14:26:54.927Z,37.34
2022-08-25T14:29:28.462Z,38.24
2022-08-25T14:32:03.488Z,39.10
2022-08-25T14:34:39.492Z,40.01
2022-08-25T14:37:17.353Z,40.61
2022-08-25T14:39:52.412Z,41.18
2022-08-25T14:42:26.956Z,41.72
2022-08-25T14:45:00.538Z,42.17
2022-08-25T14:47:35.690Z,42.18
2022-08-25T14:50:11.684Z,41.75
2022-08-25T14:52:46.834Z,41.23
2022-08-25T14:55:31.558Z,40.87
2022-08-25T14:57:58.297Z,40.71
2022-08-25T15:00:31.955Z,40.73
2022-08-25T15:03:05.670Z,40.50
2022-08-25T15:05:39.835Z,39.91
2022-08-25T15:08:33.377Z,39.49
2022-08-25T15:11:08.810Z,39.03
2022-08-25T15:13:49.023Z,38.28
2022-08-25T15:16:22.333Z,37.83
2022-08-25T15:18:56.277Z,37.49
2022-08-25T15:21:31.417Z,37.24
2022-08-25T15:24:05.724Z,36.95
2022-08-25T15:26:42.689Z,36.59
2022-08-25T15:29:16.378Z,36.36
2022-08-25T15:31:50.686Z,36.01
2022-08-25T15:34:24.275Z,35.69
2022-08-25T15:36:58.462Z,35.35
2022-08-25T15:39:32.419Z,35.05
2022-08-25T15:42:08.154Z,34.81
2022-08-25T15:44:42.213Z,34.65
2022-08-25T15:47:20.168Z,34.50
2022-08-25T15:49:57.948Z,34.31
2022-08-25T15:52:44.494Z,34.16
2022-08-25T15:55:12.632Z,34.01
2022-08-25T15:57:46.049Z,33.83
2022-08-25T16:00:21.466Z,33.68
2022-08-25T16:02:55.194Z,33.52
2022-08-25T16:05:29.601Z,33.36
2022-08-25T16:08:03.752Z,33.22
2022-08-25T16:10:38.364Z,33.12
2022-08-25T16:13:12.927Z,32.99
2022-08-25T16:15:53.168Z,32.83
2022-08-25T16:18:26.704Z,32.65
2022-08-25T16:21:00.971Z,32.39
2022-08-25T16:23:34.601Z,32.11
2022-08-25T16:26:09.900Z,31.86
2022-08-25T16:28:44.879Z,31.63
2022-08-25T16:31:19.501Z,31.41
2022-08-25T16:33:57.688Z,31.25
2022-08-25T16:36:29.926Z,31.17
2022-08-25T16:39:04.280Z,31.05
2022-08-25T16:41:39.558Z,30.81
2022-08-25T16:44:14.636Z,30.60
2022-08-25T16:46:48.338Z,30.57
2022-08-25T16:49:24.423Z,30.51
2022-08-25T16:51:58.070Z,30.37
2022-08-25T16:54:49.119Z,30.23
2022-08-25T16:57:22.619Z,30.14
2022-08-25T16:59:56.179Z,29.96
2022-08-25T17:02:29.925Z,29.84
2022-08-25T17:05:04.581Z,29.77
2022-08-25T17:07:38.524Z,29.76
2022-08-25T17:10:13.190Z,29.82
2022-08-25T17:12:46.539Z,29.91
2022-08-25T17:15:22.547Z,29.93
2022-08-25T17:17:56.072Z,29.92
2022-08-25T17:20:30.391Z,29.87
2022-08-25T17:23:11.999Z,29.78
2022-08-25T17:25:41.285Z,29.61
2022-08-25T17:28:15.201Z,29.45
2022-08-25T17:30:50.481Z,29.10
2022-08-25T17:33:25.212Z,28.75
2022-08-25T17:36:01.302Z,28.52
2022-08-25T17:38:36.244Z,28.41
2022-08-25T17:41:11.578Z,28.35
2022-08-25T17:43:45.781Z,28.24
2022-08-25T17:46:19.508Z,28.14
2022-08-25T17:48:56.603Z,28.07
2022-08-25T17:51:31.748Z,28.07
2022-08-25T17:54:05.238Z,28.05
2022-08-25T17:56:39.055Z,28.01
2022-08-25T17:59:13.651Z,27.98
2022-08-25T18:01:47.556Z,27.98
2022-08-25T18:04:22.313Z,27.96
2022-08-25T18:06:56.120Z,27.92
2022-08-25T18:09:29.848Z,27.94
2022-08-25T18:12:03.616Z,27.94
2022-08-25T18:14:37.066Z,27.98
2022-08-25T18:17:10.601Z,28.10
2022-08-25T18:19:44.243Z,28.22
2022-08-25T18:22:18.187Z,28.29
2022-08-25T18:24:52.166Z,28.33
2022-08-25T18:27:26.312Z,28.34
2022-08-25T18:30:00.577Z,28.29
2022-08-25T18:32:34.639Z,28.18
2022-08-25T18:35:09.350Z,28.07
2022-08-25T18:38:00.935Z,27.98
2022-08-25T18:40:35.258Z,27.92
2022-08-25T18:43:11.856Z,27.91
2022-08-25T18:45:48.260Z,27.90
2022-08-25T18:48:26.677Z,27.89
2022-08-25T18:50:58.351Z,27.86
2022-08-25T18:53:37.389Z,27.84
2022-08-25T18:56:19.528Z,27.82
2022-08-25T18:58:54.718Z,27.82
2022-08-25T19:01:42.128Z,27.85
2022-08-25T19:04:19.005Z,27.88
2022-08-25T19:06:52.484Z,27.90
2022-08-25T19:09:26.452Z,27.83
2022-08-25T19:12:00.214Z,27.74
2022-08-25T19:14:33.774Z,27.70
2022-08-25T19:17:07.909Z,27.70
2022-08-25T19:19:41.332Z,27.72
2022-08-25T19:22:38.131Z,27.74
2022-08-25T19:24:50.036Z,27.70
2022-08-25T19:27:24.571Z,27.68
2022-08-25T19:29:58.200Z,27.65
2022-08-25T19:32:32.610Z,27.66
2022-08-25T19:35:08.089Z,27.68
2022-08-25T19:37:41.560Z,27.62
2022-08-25T19:40:17.591Z,27.53
2022-08-25T19:42:53.913Z,27.48
2022-08-25T19:45:27.890Z,27.44
2022-08-25T19:48:02.267Z,27.45
2022-08-25T19:50:36.424Z,27.43
2022-08-25T19:53:09.966Z,27.37
2022-08-25T19:55:45.360Z,27.32
2022-08-25T19:58:18.934Z,27.24
2022-08-25T20:00:57.359Z,27.13
2022-08-25T20:03:32.431Z,27.03
2022-08-25T20:06:08.768Z,26.91
2022-08-25T20:08:48.449Z,26.88
2022-08-25T20:11:26.160Z,26.89
2022-08-25T20:14:03.964Z,26.92
2022-08-25T20:16:35.718Z,26.91
2022-08-25T20:19:10.518Z,26.93
2022-08-25T20:21:44.165Z,26.93
2022-08-25T20:24:35.185Z,26.91
2022-08-25T20:27:08.912Z,26.87
2022-08-25T20:29:44.683Z,26.76
2022-08-25T20:32:19.819Z,26.65
2022-08-25T20:34:55.708Z,26.51
2022-08-25T20:37:31.292Z,26.39
2022-08-25T20:40:09.233Z,26.29
2022-08-25T20:42:43.572Z,26.02
2022-08-25T20:45:20.459Z,26.02
2022-08-25T20:47:53.915Z,25.94
2022-08-25T20:50:27.220Z,25.95
2022-08-25T20:53:00.928Z,26.02
2022-08-25T20:55:40.390Z,26.01
2022-08-25T20:58:09.486Z,26.00
2022-08-25T21:00:45.371Z,26.02
2022-08-25T21:03:18.599Z,26.03
2022-08-25T21:05:54.027Z,26.00
2022-08-25T21:08:28.064Z,26.02
2022-08-25T21:11:01.272Z,26.03
2022-08-25T21:13:35.239Z,26.08
2022-08-25T21:16:09.463Z,26.11
2022-08-25T21:18:44.208Z,26.06
2022-08-25T21:21:18.642Z,26.04
2022-08-25T21:23:53.863Z,26.07
2022-08-25T21:26:29.718Z,26.04
2022-08-25T21:29:05.225Z,26.01
2022-08-25T21:31:38.856Z,26.00
2022-08-25T21:34:14.272Z,25.98
2022-08-25T21:36:48.078Z,25.93
2022-08-25T21:39:21.372Z,25.88
2022-08-25T21:41:55.298Z,25.84
2022-08-25T21:44:28.748Z,25.78
2022-08-25T21:47:03.687Z,25.78
2022-08-25T21:49:37.797Z,25.79
2022-08-25T21:52:11.381Z,25.77
2022-08-25T21:54:44.571Z,25.75
2022-08-25T21:57:23.747Z,25.78
2022-08-25T21:59:54.018Z,25.77
2022-08-25T22:02:27.827Z,25.76
2022-08-25T22:05:01.138Z,25.69
2022-08-25T22:07:35.997Z,25.68
2022-08-25T22:10:17.775Z,25.64
2022-08-25T22:12:49.914Z,25.59
2022-08-25T22:15:23.655Z,25.53
2022-08-25T22:17:56.825Z,25.51
2022-08-25T22:20:30.363Z,25.47
2022-08-25T22:23:03.573Z,25.46
2022-08-25T22:25:36.761Z,25.47
2022-08-25T22:28:14.464Z,25.44
2022-08-25T22:30:46.714Z,25.39
2022-08-25T22:33:21.320Z,25.33
2022-08-25T22:36:00.067Z,25.26
2022-08-25T22:38:29.675Z,25.26
2022-08-25T22:41:04.728Z,25.19
2022-08-25T22:43:38.357Z,25.14
2022-08-25T22:46:12.735Z,25.07
2022-08-25T22:48:46.682Z,25.01
2022-08-25T22:51:24.381Z,25.02
2022-08-25T22:53:58.418Z,25.02
2022-08-25T22:56:34.375Z,24.95
2022-08-25T22:59:10.558Z,24.94
2022-08-25T23:01:46.066Z,24.97
2022-08-25T23:04:19.778Z,24.91
2022-08-25T23:06:53.015Z,24.85
2022-08-25T23:09:26.550Z,24.78
2022-08-25T23:12:00.711Z,24.73
2022-08-25T23:14:37.441Z,24.71
2022-08-25T23:17:10.834Z,24.66
2022-08-25T23:19:44.077Z,24.60
2022-08-25T23:22:17.735Z,24.58
2022-08-25T23:24:52.791Z,24.55
2022-08-25T23:27:26.020Z,24.44
2022-08-25T23:29:59.172Z,24.34
2022-08-25T23:32:32.665Z,24.24
2022-08-25T23:35:07.027Z,24.18
2022-08-25T23:37:40.392Z,24.14
2022-08-25T23:40:19.179Z,24.06
2022-08-25T23:42:49.575Z,23.98
2022-08-25T23:45:23.820Z,23.93
2022-08-25T23:47:58.744Z,23.83
2022-08-25T23:50:32.050Z,23.74
2022-08-25T23:53:05.406Z,23.69
2022-08-25T23:55:38.964Z,23.62
2022-08-25T23:58:14.293Z,23.52
